Terminal Aerodrome Forecast
Issued by NWS

Home | Current Version | Previous Version | Text Only | Print | Product List | Glossary On
Versions: 1 2 3 4 5 6 7 8 9 10 11 12 13 14 15 16 17 18 19
000
FTUS43 KOAX 122300
TAFBFF
TAF
KBFF 122340Z 1300/1324 18006KT P6SM SCT050
     FM130200 02008KT P6SM VCSH BKN050
     FM130400 32004KT P6SM FEW100
     FM131000 VRB04KT P6SM SCT010
     FM131800 12006KT P6SM BKN100=

USA.gov is the U.S. government's official web portal to all federal, state and local government web resources and services.